Pierces Chapel, Texas
Current Conditions -  °F | °C
As of 2:35 PM on Sunday 25 Jan 2015 (Local Time) from KJSO Reporting Station
Clear Clear  
Wind Chill: 66°   Ceiling: Unl
Heat Index: 66°   Visibility: 10mi
Dew Point: 27°   Wind: 18mph
Humidity: 22%   Direction: 290°WNW
Pressure: 29.99"   Gusts: 24mph
Location:  31.9649°N, 95.3036°W
Report Text: KJSO 252035Z AUTO 29016G21KT 10SM CLR 19/M03 A2999 RMK AO2 T01911030
Loading
Personal Weather Stations






























Interactive Weather Map New forecast layout! Learn more

10-Day Weather Forecast

Advertisements
Track Severe Weather on mobile